sensor_id;sensor_type;location;lat;lon;timestamp;P1;durP1;ratioP1;P2;durP2;ratioP2
62463;SDS011;48512;48.552;9.380;2022-07-29T00:01:55;9.88;;;7.72;;
62463;SDS011;48512;48.552;9.380;2022-07-29T00:04:20;9.15;;;8.05;;
62463;SDS011;48512;48.552;9.380;2022-07-29T00:06:45;10.63;;;7.65;;
62463;SDS011;48512;48.552;9.380;2022-07-29T00:09:11;8.98;;;6.95;;
62463;SDS011;48512;48.552;9.380;2022-07-29T00:11:36;9.43;;;7.20;;
62463;SDS011;48512;48.552;9.380;2022-07-29T00:14:02;10.68;;;6.93;;
62463;SDS011;48512;48.552;9.380;2022-07-29T00:16:27;9.35;;;6.47;;
62463;SDS011;48512;48.552;9.380;2022-07-29T00:18:53;9.00;;;7.10;;
62463;SDS011;48512;48.552;9.380;2022-07-29T00:21:18;9.50;;;6.88;;
62463;SDS011;48512;48.552;9.380;2022-07-29T00:23:44;10.43;;;7.28;;
62463;SDS011;48512;48.552;9.380;2022-07-29T00:26:09;10.88;;;7.20;;
62463;SDS011;48512;48.552;9.380;2022-07-29T00:28:34;8.98;;;6.57;;
62463;SDS011;48512;48.552;9.380;2022-07-29T00:31:00;7.45;;;6.20;;
62463;SDS011;48512;48.552;9.380;2022-07-29T00:33:25;7.85;;;6.35;;
62463;SDS011;48512;48.552;9.380;2022-07-29T00:35:51;9.98;;;6.15;;
62463;SDS011;48512;48.552;9.380;2022-07-29T00:38:17;9.82;;;6.53;;
62463;SDS011;48512;48.552;9.380;2022-07-29T00:40:44;7.45;;;6.00;;
62463;SDS011;48512;48.552;9.380;2022-07-29T00:43:10;8.05;;;5.70;;
62463;SDS011;48512;48.552;9.380;2022-07-29T00:45:36;9.20;;;6.07;;
62463;SDS011;48512;48.552;9.380;2022-07-29T00:48:02;8.80;;;6.53;;
62463;SDS011;48512;48.552;9.380;2022-07-29T00:50:29;9.27;;;6.18;;
62463;SDS011;48512;48.552;9.380;2022-07-29T00:52:55;7.90;;;6.30;;
62463;SDS011;48512;48.552;9.380;2022-07-29T00:55:21;8.27;;;6.13;;
62463;SDS011;48512;48.552;9.380;2022-07-29T00:57:46;9.57;;;6.68;;
62463;SDS011;48512;48.552;9.380;2022-07-29T01:00:14;7.95;;;6.03;;
62463;SDS011;48512;48.552;9.380;2022-07-29T01:02:42;7.57;;;6.43;;
62463;SDS011;48512;48.552;9.380;2022-07-29T01:05:08;10.43;;;6.57;;
62463;SDS011;48512;48.552;9.380;2022-07-29T01:07:36;10.35;;;6.80;;
62463;SDS011;48512;48.552;9.380;2022-07-29T01:10:06;10.77;;;6.57;;
62463;SDS011;48512;48.552;9.380;2022-07-29T01:12:34;8.48;;;6.50;;
62463;SDS011;48512;48.552;9.380;2022-07-29T01:15:03;7.05;;;5.97;;
62463;SDS011;48512;48.552;9.380;2022-07-29T01:20:31;10.10;;;6.57;;
62463;SDS011;48512;48.552;9.380;2022-07-29T01:28:47;10.02;;;6.65;;
62463;SDS011;48512;48.552;9.380;2022-07-29T01:31:31;8.88;;;6.80;;
62463;SDS011;48512;48.552;9.380;2022-07-29T01:34:11;10.30;;;7.05;;
62463;SDS011;48512;48.552;9.380;2022-07-29T01:39:45;9.18;;;6.35;;
62463;SDS011;48512;48.552;9.380;2022-07-29T01:42:55;8.40;;;6.50;;
62463;SDS011;48512;48.552;9.380;2022-07-29T01:47:44;8.13;;;6.13;;
62463;SDS011;48512;48.552;9.380;2022-07-29T01:50:27;9.48;;;6.78;;
62463;SDS011;48512;48.552;9.380;2022-07-29T01:52:59;9.43;;;6.68;;
62463;SDS011;48512;48.552;9.380;2022-07-29T01:55:28;10.00;;;6.80;;
62463;SDS011;48512;48.552;9.380;2022-07-29T01:57:56;8.50;;;6.43;;
62463;SDS011;48512;48.552;9.380;2022-07-29T02:00:23;7.82;;;6.40;;
62463;SDS011;48512;48.552;9.380;2022-07-29T02:02:50;9.63;;;7.00;;
62463;SDS011;48512;48.552;9.380;2022-07-29T02:05:19;11.27;;;6.55;;
62463;SDS011;48512;48.552;9.380;2022-07-29T02:07:48;9.07;;;6.97;;
62463;SDS011;48512;48.552;9.380;2022-07-29T02:10:15;11.77;;;6.95;;
62463;SDS011;48512;48.552;9.380;2022-07-29T02:12:43;8.60;;;6.50;;
62463;SDS011;48512;48.552;9.380;2022-07-29T02:15:10;10.32;;;6.72;;
62463;SDS011;48512;48.552;9.380;2022-07-29T02:17:39;7.40;;;6.47;;
62463;SDS011;48512;48.552;9.380;2022-07-29T02:20:08;9.20;;;6.15;;
62463;SDS011;48512;48.552;9.380;2022-07-29T02:22:35;6.72;;;5.45;;
62463;SDS011;48512;48.552;9.380;2022-07-29T02:25:03;8.63;;;6.82;;
62463;SDS011;48512;48.552;9.380;2022-07-29T02:27:29;10.35;;;6.35;;
62463;SDS011;48512;48.552;9.380;2022-07-29T02:29:57;11.07;;;6.25;;
62463;SDS011;48512;48.552;9.380;2022-07-29T02:32:25;8.40;;;5.80;;
62463;SDS011;48512;48.552;9.380;2022-07-29T02:34:52;7.50;;;5.20;;
62463;SDS011;48512;48.552;9.380;2022-07-29T02:37:18;7.10;;;5.60;;
62463;SDS011;48512;48.552;9.380;2022-07-29T02:39:45;9.80;;;5.65;;
62463;SDS011;48512;48.552;9.380;2022-07-29T02:42:14;6.78;;;5.30;;
62463;SDS011;48512;48.552;9.380;2022-07-29T02:44:42;8.05;;;6.07;;
62463;SDS011;48512;48.552;9.380;2022-07-29T02:49:56;7.38;;;5.85;;
62463;SDS011;48512;48.552;9.380;2022-07-29T02:55:32;8.40;;;5.50;;
62463;SDS011;48512;48.552;9.380;2022-07-29T02:58:03;7.00;;;5.40;;
62463;SDS011;48512;48.552;9.380;2022-07-29T03:00:34;6.35;;;5.22;;
62463;SDS011;48512;48.552;9.380;2022-07-29T03:03:04;7.55;;;5.15;;
62463;SDS011;48512;48.552;9.380;2022-07-29T03:05:37;11.63;;;5.30;;
62463;SDS011;48512;48.552;9.380;2022-07-29T03:08:04;6.03;;;5.05;;
62463;SDS011;48512;48.552;9.380;2022-07-29T03:10:31;5.75;;;5.05;;
62463;SDS011;48512;48.552;9.380;2022-07-29T03:12:57;9.75;;;4.85;;
62463;SDS011;48512;48.552;9.380;2022-07-29T03:15:23;5.97;;;4.63;;
62463;SDS011;48512;48.552;9.380;2022-07-29T03:17:49;7.47;;;4.68;;
62463;SDS011;48512;48.552;9.380;2022-07-29T03:20:16;5.82;;;4.90;;
62463;SDS011;48512;48.552;9.380;2022-07-29T03:22:43;6.20;;;4.68;;
62463;SDS011;48512;48.552;9.380;2022-07-29T03:25:12;5.95;;;4.60;;
62463;SDS011;48512;48.552;9.380;2022-07-29T03:27:38;7.65;;;4.97;;
62463;SDS011;48512;48.552;9.380;2022-07-29T03:30:05;8.70;;;4.60;;
62463;SDS011;48512;48.552;9.380;2022-07-29T03:32:31;6.57;;;4.43;;
62463;SDS011;48512;48.552;9.380;2022-07-29T03:34:56;7.68;;;4.63;;
62463;SDS011;48512;48.552;9.380;2022-07-29T03:37:22;5.75;;;4.40;;
62463;SDS011;48512;48.552;9.380;2022-07-29T03:39:47;8.52;;;4.63;;
62463;SDS011;48512;48.552;9.380;2022-07-29T03:42:16;6.07;;;4.07;;
62463;SDS011;48512;48.552;9.380;2022-07-29T03:44:45;7.15;;;4.40;;
62463;SDS011;48512;48.552;9.380;2022-07-29T03:47:13;6.85;;;4.60;;
62463;SDS011;48512;48.552;9.380;2022-07-29T03:49:40;7.65;;;5.00;;
62463;SDS011;48512;48.552;9.380;2022-07-29T03:52:06;7.68;;;4.78;;
62463;SDS011;48512;48.552;9.380;2022-07-29T03:54:33;7.43;;;4.70;;
62463;SDS011;48512;48.552;9.380;2022-07-29T03:56:59;7.82;;;4.53;;
62463;SDS011;48512;48.552;9.380;2022-07-29T03:59:26;9.07;;;4.22;;
62463;SDS011;48512;48.552;9.380;2022-07-29T04:01:52;9.50;;;4.63;;
62463;SDS011;48512;48.552;9.380;2022-07-29T04:04:18;7.55;;;4.20;;
62463;SDS011;48512;48.552;9.380;2022-07-29T04:06:45;6.25;;;4.50;;
62463;SDS011;48512;48.552;9.380;2022-07-29T04:09:11;8.23;;;4.75;;
62463;SDS011;48512;48.552;9.380;2022-07-29T04:11:40;7.00;;;4.88;;
62463;SDS011;48512;48.552;9.380;2022-07-29T04:16:32;7.82;;;4.50;;
62463;SDS011;48512;48.552;9.380;2022-07-29T04:18:57;6.63;;;4.53;;
62463;SDS011;48512;48.552;9.380;2022-07-29T04:21:23;9.07;;;5.35;;
62463;SDS011;48512;48.552;9.380;2022-07-29T04:23:48;8.98;;;6.13;;
62463;SDS011;48512;48.552;9.380;2022-07-29T04:26:17;6.47;;;4.60;;
62463;SDS011;48512;48.552;9.380;2022-07-29T04:28:43;8.05;;;5.20;;
62463;SDS011;48512;48.552;9.380;2022-07-29T04:31:09;9.10;;;5.65;;
62463;SDS011;48512;48.552;9.380;2022-07-29T04:33:35;8.80;;;6.10;;
62463;SDS011;48512;48.552;9.380;2022-07-29T04:36:01;7.38;;;5.45;;
62463;SDS011;48512;48.552;9.380;2022-07-29T04:38:26;10.18;;;6.18;;
62463;SDS011;48512;48.552;9.380;2022-07-29T04:40:51;11.43;;;6.95;;
62463;SDS011;48512;48.552;9.380;2022-07-29T04:43:17;9.55;;;7.07;;
62463;SDS011;48512;48.552;9.380;2022-07-29T04:45:42;9.10;;;6.97;;
62463;SDS011;48512;48.552;9.380;2022-07-29T04:48:08;9.35;;;7.10;;
62463;SDS011;48512;48.552;9.380;2022-07-29T04:50:33;9.98;;;7.80;;
62463;SDS011;48512;48.552;9.380;2022-07-29T04:52:59;10.90;;;7.72;;
62463;SDS011;48512;48.552;9.380;2022-07-29T04:55:24;9.65;;;7.22;;
62463;SDS011;48512;48.552;9.380;2022-07-29T04:57:50;10.13;;;7.85;;
62463;SDS011;48512;48.552;9.380;2022-07-29T05:00:15;9.80;;;7.43;;
62463;SDS011;48512;48.552;9.380;2022-07-29T05:02:41;9.88;;;7.75;;
62463;SDS011;48512;48.552;9.380;2022-07-29T05:05:07;11.25;;;8.20;;
62463;SDS011;48512;48.552;9.380;2022-07-29T05:07:33;13.00;;;8.40;;
62463;SDS011;48512;48.552;9.380;2022-07-29T05:09:58;12.50;;;8.70;;
62463;SDS011;48512;48.552;9.380;2022-07-29T05:12:24;11.65;;;7.97;;
62463;SDS011;48512;48.552;9.380;2022-07-29T05:14:50;10.88;;;7.45;;
62463;SDS011;48512;48.552;9.380;2022-07-29T05:17:15;10.30;;;7.50;;
62463;SDS011;48512;48.552;9.380;2022-07-29T05:19:41;10.32;;;6.78;;
62463;SDS011;48512;48.552;9.380;2022-07-29T05:22:06;8.88;;;5.93;;
62463;SDS011;48512;48.552;9.380;2022-07-29T05:24:31;7.32;;;5.43;;
62463;SDS011;48512;48.552;9.380;2022-07-29T05:26:57;8.65;;;5.00;;
62463;SDS011;48512;48.552;9.380;2022-07-29T05:29:22;7.32;;;5.30;;
62463;SDS011;48512;48.552;9.380;2022-07-29T05:31:48;6.75;;;4.65;;
62463;SDS011;48512;48.552;9.380;2022-07-29T05:34:13;7.25;;;4.72;;
62463;SDS011;48512;48.552;9.380;2022-07-29T05:36:38;6.85;;;4.93;;
62463;SDS011;48512;48.552;9.380;2022-07-29T05:39:04;7.03;;;4.80;;
62463;SDS011;48512;48.552;9.380;2022-07-29T05:41:31;8.35;;;5.13;;
62463;SDS011;48512;48.552;9.380;2022-07-29T05:43:57;14.35;;;6.93;;
62463;SDS011;48512;48.552;9.380;2022-07-29T05:46:23;9.30;;;5.60;;
62463;SDS011;48512;48.552;9.380;2022-07-29T05:48:49;9.02;;;5.70;;
62463;SDS011;48512;48.552;9.380;2022-07-29T05:51:14;10.52;;;5.65;;
62463;SDS011;48512;48.552;9.380;2022-07-29T05:53:39;9.45;;;5.55;;
62463;SDS011;48512;48.552;9.380;2022-07-29T05:56:05;9.18;;;6.35;;
62463;SDS011;48512;48.552;9.380;2022-07-29T05:58:31;14.02;;;6.30;;
62463;SDS011;48512;48.552;9.380;2022-07-29T06:00:57;12.02;;;7.78;;
62463;SDS011;48512;48.552;9.380;2022-07-29T06:03:25;13.82;;;8.52;;
62463;SDS011;48512;48.552;9.380;2022-07-29T06:05:51;11.23;;;7.03;;
62463;SDS011;48512;48.552;9.380;2022-07-29T06:08:16;13.68;;;7.10;;
62463;SDS011;48512;48.552;9.380;2022-07-29T06:10:42;11.40;;;7.65;;
62463;SDS011;48512;48.552;9.380;2022-07-29T06:13:08;10.27;;;6.70;;
62463;SDS011;48512;48.552;9.380;2022-07-29T06:15:33;10.95;;;7.10;;
62463;SDS011;48512;48.552;9.380;2022-07-29T06:17:59;11.32;;;6.70;;
62463;SDS011;48512;48.552;9.380;2022-07-29T06:20:24;8.95;;;6.18;;
62463;SDS011;48512;48.552;9.380;2022-07-29T06:22:50;9.38;;;6.93;;
62463;SDS011;48512;48.552;9.380;2022-07-29T06:25:15;9.65;;;6.32;;
62463;SDS011;48512;48.552;9.380;2022-07-29T06:27:41;9.82;;;6.00;;
62463;SDS011;48512;48.552;9.380;2022-07-29T06:30:06;8.93;;;6.60;;
62463;SDS011;48512;48.552;9.380;2022-07-29T06:32:32;11.00;;;5.80;;
62463;SDS011;48512;48.552;9.380;2022-07-29T06:34:58;10.13;;;6.22;;
62463;SDS011;48512;48.552;9.380;2022-07-29T06:37:24;8.57;;;5.38;;
62463;SDS011;48512;48.552;9.380;2022-07-29T06:39:49;11.88;;;5.88;;
62463;SDS011;48512;48.552;9.380;2022-07-29T06:42:35;9.43;;;5.45;;
62463;SDS011;48512;48.552;9.380;2022-07-29T06:45:00;8.35;;;5.43;;
62463;SDS011;48512;48.552;9.380;2022-07-29T06:47:26;8.57;;;5.38;;
62463;SDS011;48512;48.552;9.380;2022-07-29T06:49:51;7.57;;;5.65;;
62463;SDS011;48512;48.552;9.380;2022-07-29T06:52:16;8.10;;;6.22;;
62463;SDS011;48512;48.552;9.380;2022-07-29T06:54:42;7.85;;;5.40;;
62463;SDS011;48512;48.552;9.380;2022-07-29T06:57:12;8.68;;;5.88;;
62463;SDS011;48512;48.552;9.380;2022-07-29T06:59:38;7.85;;;5.40;;
62463;SDS011;48512;48.552;9.380;2022-07-29T07:02:04;6.65;;;5.13;;
62463;SDS011;48512;48.552;9.380;2022-07-29T07:04:29;5.68;;;5.07;;
62463;SDS011;48512;48.552;9.380;2022-07-29T07:06:55;8.98;;;5.80;;
62463;SDS011;48512;48.552;9.380;2022-07-29T07:09:21;8.40;;;5.72;;
62463;SDS011;48512;48.552;9.380;2022-07-29T07:11:46;6.65;;;5.30;;
62463;SDS011;48512;48.552;9.380;2022-07-29T07:14:12;7.72;;;5.72;;
62463;SDS011;48512;48.552;9.380;2022-07-29T07:16:37;8.88;;;5.80;;
62463;SDS011;48512;48.552;9.380;2022-07-29T07:19:02;8.25;;;6.20;;
62463;SDS011;48512;48.552;9.380;2022-07-29T07:21:28;7.93;;;5.85;;
62463;SDS011;48512;48.552;9.380;2022-07-29T07:23:54;7.82;;;5.72;;
62463;SDS011;48512;48.552;9.380;2022-07-29T07:26:19;7.40;;;6.05;;
62463;SDS011;48512;48.552;9.380;2022-07-29T07:28:45;7.85;;;6.18;;
62463;SDS011;48512;48.552;9.380;2022-07-29T07:31:10;8.63;;;6.57;;
62463;SDS011;48512;48.552;9.380;2022-07-29T07:33:36;10.23;;;6.40;;
62463;SDS011;48512;48.552;9.380;2022-07-29T07:36:02;9.30;;;6.72;;
62463;SDS011;48512;48.552;9.380;2022-07-29T07:38:28;9.10;;;6.30;;
62463;SDS011;48512;48.552;9.380;2022-07-29T07:40:53;10.45;;;7.07;;
62463;SDS011;48512;48.552;9.380;2022-07-29T07:43:19;9.30;;;6.65;;
62463;SDS011;48512;48.552;9.380;2022-07-29T07:45:45;8.98;;;6.70;;
62463;SDS011;48512;48.552;9.380;2022-07-29T07:48:10;9.60;;;6.07;;
62463;SDS011;48512;48.552;9.380;2022-07-29T07:50:36;8.23;;;6.68;;
62463;SDS011;48512;48.552;9.380;2022-07-29T07:53:02;9.07;;;6.30;;
62463;SDS011;48512;48.552;9.380;2022-07-29T07:55:27;11.48;;;6.82;;
62463;SDS011;48512;48.552;9.380;2022-07-29T07:57:53;7.22;;;6.13;;
62463;SDS011;48512;48.552;9.380;2022-07-29T08:00:20;9.32;;;6.53;;
62463;SDS011;48512;48.552;9.380;2022-07-29T08:02:46;9.57;;;6.53;;
62463;SDS011;48512;48.552;9.380;2022-07-29T08:05:12;8.45;;;6.63;;
62463;SDS011;48512;48.552;9.380;2022-07-29T08:07:41;9.30;;;6.60;;
62463;SDS011;48512;48.552;9.380;2022-07-29T08:10:08;7.55;;;6.57;;
62463;SDS011;48512;48.552;9.380;2022-07-29T08:12:34;9.75;;;7.35;;
62463;SDS011;48512;48.552;9.380;2022-07-29T08:14:59;8.73;;;7.60;;
62463;SDS011;48512;48.552;9.380;2022-07-29T08:17:25;8.90;;;6.90;;
62463;SDS011;48512;48.552;9.380;2022-07-29T08:19:51;12.93;;;7.32;;
62463;SDS011;48512;48.552;9.380;2022-07-29T08:22:17;8.95;;;6.72;;
62463;SDS011;48512;48.552;9.380;2022-07-29T08:24:42;9.95;;;6.85;;
62463;SDS011;48512;48.552;9.380;2022-07-29T08:27:08;8.57;;;6.88;;
62463;SDS011;48512;48.552;9.380;2022-07-29T08:29:35;10.55;;;6.63;;
62463;SDS011;48512;48.552;9.380;2022-07-29T08:32:00;11.32;;;6.90;;
62463;SDS011;48512;48.552;9.380;2022-07-29T08:34:26;8.20;;;7.40;;
62463;SDS011;48512;48.552;9.380;2022-07-29T08:36:52;9.88;;;7.50;;
62463;SDS011;48512;48.552;9.380;2022-07-29T08:39:17;10.15;;;7.35;;
62463;SDS011;48512;48.552;9.380;2022-07-29T08:41:42;10.80;;;7.35;;
62463;SDS011;48512;48.552;9.380;2022-07-29T08:44:08;9.88;;;6.80;;
62463;SDS011;48512;48.552;9.380;2022-07-29T08:46:36;11.25;;;7.25;;
62463;SDS011;48512;48.552;9.380;2022-07-29T08:49:03;8.95;;;7.05;;
62463;SDS011;48512;48.552;9.380;2022-07-29T08:51:28;12.30;;;8.77;;
62463;SDS011;48512;48.552;9.380;2022-07-29T08:53:55;10.40;;;7.88;;
62463;SDS011;48512;48.552;9.380;2022-07-29T08:56:21;9.10;;;7.60;;
62463;SDS011;48512;48.552;9.380;2022-07-29T08:58:47;8.82;;;7.57;;
62463;SDS011;48512;48.552;9.380;2022-07-29T09:01:13;10.02;;;7.25;;
62463;SDS011;48512;48.552;9.380;2022-07-29T09:03:42;13.20;;;7.03;;
62463;SDS011;48512;48.552;9.380;2022-07-29T09:06:11;8.48;;;7.68;;
62463;SDS011;48512;48.552;9.380;2022-07-29T09:08:39;10.38;;;7.53;;
62463;SDS011;48512;48.552;9.380;2022-07-29T09:11:04;8.82;;;7.18;;
62463;SDS011;48512;48.552;9.380;2022-07-29T09:13:32;12.23;;;7.47;;
62463;SDS011;48512;48.552;9.380;2022-07-29T09:15:57;9.85;;;7.47;;
62463;SDS011;48512;48.552;9.380;2022-07-29T09:21:01;11.25;;;7.72;;
62463;SDS011;48512;48.552;9.380;2022-07-29T09:26:30;10.00;;;7.20;;
62463;SDS011;48512;48.552;9.380;2022-07-29T09:28:57;10.90;;;8.30;;
62463;SDS011;48512;48.552;9.380;2022-07-29T09:31:32;9.05;;;8.07;;
62463;SDS011;48512;48.552;9.380;2022-07-29T09:33:59;10.00;;;7.88;;
62463;SDS011;48512;48.552;9.380;2022-07-29T09:36:25;12.13;;;7.82;;
62463;SDS011;48512;48.552;9.380;2022-07-29T09:39:00;12.10;;;8.07;;
62463;SDS011;48512;48.552;9.380;2022-07-29T09:41:27;13.90;;;8.73;;
62463;SDS011;48512;48.552;9.380;2022-07-29T09:43:56;11.18;;;7.53;;
62463;SDS011;48512;48.552;9.380;2022-07-29T09:46:22;11.40;;;8.00;;
62463;SDS011;48512;48.552;9.380;2022-07-29T09:49:08;10.68;;;8.13;;
62463;SDS011;48512;48.552;9.380;2022-07-29T09:51:34;10.60;;;8.00;;
62463;SDS011;48512;48.552;9.380;2022-07-29T09:54:00;12.40;;;7.80;;
62463;SDS011;48512;48.552;9.380;2022-07-29T09:56:41;10.23;;;7.88;;
62463;SDS011;48512;48.552;9.380;2022-07-29T09:59:07;11.93;;;7.60;;
62463;SDS011;48512;48.552;9.380;2022-07-29T10:01:34;10.23;;;8.05;;
62463;SDS011;48512;48.552;9.380;2022-07-29T10:04:01;9.80;;;7.30;;
62463;SDS011;48512;48.552;9.380;2022-07-29T10:06:26;11.07;;;7.35;;
62463;SDS011;48512;48.552;9.380;2022-07-29T10:08:52;10.00;;;7.28;;
62463;SDS011;48512;48.552;9.380;2022-07-29T10:11:18;10.75;;;7.13;;
62463;SDS011;48512;48.552;9.380;2022-07-29T10:13:44;8.43;;;6.32;;
62463;SDS011;48512;48.552;9.380;2022-07-29T10:16:12;10.80;;;6.82;;
62463;SDS011;48512;48.552;9.380;2022-07-29T10:18:38;10.23;;;6.45;;
62463;SDS011;48512;48.552;9.380;2022-07-29T10:21:06;10.20;;;6.72;;
62463;SDS011;48512;48.552;9.380;2022-07-29T10:23:32;9.50;;;7.05;;
62463;SDS011;48512;48.552;9.380;2022-07-29T10:25:59;10.73;;;6.90;;
62463;SDS011;48512;48.552;9.380;2022-07-29T10:28:25;9.85;;;6.63;;
62463;SDS011;48512;48.552;9.380;2022-07-29T10:30:51;9.77;;;7.00;;
62463;SDS011;48512;48.552;9.380;2022-07-29T10:34:27;7.50;;;6.80;;
62463;SDS011;48512;48.552;9.380;2022-07-29T10:44:39;8.73;;;6.60;;
62463;SDS011;48512;48.552;9.380;2022-07-29T10:47:05;7.90;;;6.60;;
62463;SDS011;48512;48.552;9.380;2022-07-29T10:49:31;9.27;;;6.80;;
62463;SDS011;48512;48.552;9.380;2022-07-29T10:52:06;10.52;;;6.63;;
62463;SDS011;48512;48.552;9.380;2022-07-29T11:05:17;7.30;;;6.10;;
62463;SDS011;48512;48.552;9.380;2022-07-29T11:10:37;9.75;;;6.45;;
62463;SDS011;48512;48.552;9.380;2022-07-29T11:13:03;7.88;;;6.13;;
62463;SDS011;48512;48.552;9.380;2022-07-29T11:15:29;10.07;;;6.53;;
62463;SDS011;48512;48.552;9.380;2022-07-29T11:18:21;8.75;;;6.90;;
62463;SDS011;48512;48.552;9.380;2022-07-29T11:20:47;7.47;;;6.47;;
62463;SDS011;48512;48.552;9.380;2022-07-29T11:29:01;8.65;;;6.50;;
62463;SDS011;48512;48.552;9.380;2022-07-29T11:31:53;8.73;;;6.45;;
62463;SDS011;48512;48.552;9.380;2022-07-29T11:34:36;8.70;;;6.00;;
62463;SDS011;48512;48.552;9.380;2022-07-29T11:39:41;9.43;;;6.72;;
62463;SDS011;48512;48.552;9.380;2022-07-29T11:47:27;10.13;;;6.90;;
62463;SDS011;48512;48.552;9.380;2022-07-29T11:49:55;7.57;;;6.55;;
62463;SDS011;48512;48.552;9.380;2022-07-29T11:52:22;7.97;;;6.30;;
62463;SDS011;48512;48.552;9.380;2022-07-29T11:54:48;8.93;;;6.63;;
62463;SDS011;48512;48.552;9.380;2022-07-29T11:57:17;10.55;;;6.25;;
62463;SDS011;48512;48.552;9.380;2022-07-29T11:59:44;8.18;;;5.22;;
62463;SDS011;48512;48.552;9.380;2022-07-29T12:02:11;8.80;;;4.57;;
62463;SDS011;48512;48.552;9.380;2022-07-29T12:04:53;8.48;;;4.72;;
62463;SDS011;48512;48.552;9.380;2022-07-29T12:07:30;4.90;;;4.05;;
62463;SDS011;48512;48.552;9.380;2022-07-29T12:09:56;7.50;;;4.00;;
62463;SDS011;48512;48.552;9.380;2022-07-29T12:12:21;4.43;;;3.50;;
62463;SDS011;48512;48.552;9.380;2022-07-29T12:14:48;5.35;;;3.03;;
62463;SDS011;48512;48.552;9.380;2022-07-29T12:17:32;4.97;;;2.80;;
62463;SDS011;48512;48.552;9.380;2022-07-29T12:20:00;5.13;;;3.08;;
62463;SDS011;48512;48.552;9.380;2022-07-29T12:22:40;3.30;;;3.00;;
62463;SDS011;48512;48.552;9.380;2022-07-29T12:25:07;3.30;;;3.00;;
62463;SDS011;48512;48.552;9.380;2022-07-29T12:27:37;4.05;;;3.45;;
62463;SDS011;48512;48.552;9.380;2022-07-29T12:30:10;4.88;;;3.85;;
62463;SDS011;48512;48.552;9.380;2022-07-29T12:32:38;7.18;;;4.40;;
62463;SDS011;48512;48.552;9.380;2022-07-29T12:35:05;5.20;;;3.72;;
62463;SDS011;48512;48.552;9.380;2022-07-29T12:37:34;5.78;;;4.00;;
62463;SDS011;48512;48.552;9.380;2022-07-29T12:40:02;4.35;;;3.85;;
62463;SDS011;48512;48.552;9.380;2022-07-29T12:42:29;4.13;;;3.63;;
62463;SDS011;48512;48.552;9.380;2022-07-29T12:44:54;6.90;;;4.95;;
62463;SDS011;48512;48.552;9.380;2022-07-29T12:47:20;5.80;;;5.15;;
62463;SDS011;48512;48.552;9.380;2022-07-29T12:49:46;6.32;;;5.75;;
62463;SDS011;48512;48.552;9.380;2022-07-29T12:54:53;7.53;;;5.20;;
62463;SDS011;48512;48.552;9.380;2022-07-29T12:57:18;9.27;;;5.40;;
62463;SDS011;48512;48.552;9.380;2022-07-29T12:59:44;7.22;;;5.43;;
62463;SDS011;48512;48.552;9.380;2022-07-29T13:02:21;6.55;;;5.00;;
62463;SDS011;48512;48.552;9.380;2022-07-29T13:04:56;9.27;;;5.78;;
62463;SDS011;48512;48.552;9.380;2022-07-29T13:07:26;6.80;;;5.43;;
62463;SDS011;48512;48.552;9.380;2022-07-29T13:09:54;15.00;;;7.57;;
62463;SDS011;48512;48.552;9.380;2022-07-29T13:12:34;12.10;;;8.23;;
62463;SDS011;48512;48.552;9.380;2022-07-29T13:14:59;14.02;;;6.38;;
62463;SDS011;48512;48.552;9.380;2022-07-29T13:17:25;10.00;;;6.88;;
62463;SDS011;48512;48.552;9.380;2022-07-29T13:20:14;8.13;;;6.37;;
62463;SDS011;48512;48.552;9.380;2022-07-29T13:22:42;8.23;;;7.10;;
62463;SDS011;48512;48.552;9.380;2022-07-29T13:25:08;10.50;;;7.23;;
62463;SDS011;48512;48.552;9.380;2022-07-29T13:27:35;13.55;;;7.55;;
62463;SDS011;48512;48.552;9.380;2022-07-29T13:30:06;9.20;;;7.28;;
62463;SDS011;48512;48.552;9.380;2022-07-29T13:32:34;8.15;;;7.35;;
62463;SDS011;48512;48.552;9.380;2022-07-29T13:35:00;9.77;;;7.63;;
62463;SDS011;48512;48.552;9.380;2022-07-29T13:37:29;10.05;;;7.65;;
62463;SDS011;48512;48.552;9.380;2022-07-29T13:39:55;13.52;;;8.70;;
62463;SDS011;48512;48.552;9.380;2022-07-29T13:42:21;12.48;;;8.05;;
62463;SDS011;48512;48.552;9.380;2022-07-29T13:44:47;15.18;;;9.65;;
62463;SDS011;48512;48.552;9.380;2022-07-29T13:47:17;9.85;;;8.02;;
62463;SDS011;48512;48.552;9.380;2022-07-29T13:49:46;9.95;;;8.07;;
62463;SDS011;48512;48.552;9.380;2022-07-29T13:52:11;12.68;;;7.45;;
62463;SDS011;48512;48.552;9.380;2022-07-29T13:54:37;11.52;;;8.13;;
62463;SDS011;48512;48.552;9.380;2022-07-29T13:57:06;10.52;;;7.55;;
62463;SDS011;48512;48.552;9.380;2022-07-29T13:59:32;13.43;;;7.88;;
62463;SDS011;48512;48.552;9.380;2022-07-29T14:01:57;15.57;;;8.90;;
62463;SDS011;48512;48.552;9.380;2022-07-29T14:04:23;14.50;;;8.02;;
62463;SDS011;48512;48.552;9.380;2022-07-29T14:06:49;12.50;;;8.50;;
62463;SDS011;48512;48.552;9.380;2022-07-29T14:09:14;15.00;;;8.90;;
62463;SDS011;48512;48.552;9.380;2022-07-29T14:11:40;16.90;;;11.43;;
62463;SDS011;48512;48.552;9.380;2022-07-29T14:14:05;11.98;;;8.80;;
62463;SDS011;48512;48.552;9.380;2022-07-29T14:16:31;13.82;;;8.52;;
62463;SDS011;48512;48.552;9.380;2022-07-29T14:18:56;12.48;;;8.70;;
62463;SDS011;48512;48.552;9.380;2022-07-29T14:21:22;11.32;;;8.25;;
62463;SDS011;48512;48.552;9.380;2022-07-29T14:23:47;15.13;;;8.57;;
62463;SDS011;48512;48.552;9.380;2022-07-29T14:26:13;10.93;;;8.13;;
62463;SDS011;48512;48.552;9.380;2022-07-29T14:28:38;12.07;;;8.15;;
62463;SDS011;48512;48.552;9.380;2022-07-29T14:31:04;16.80;;;10.15;;
62463;SDS011;48512;48.552;9.380;2022-07-29T14:33:29;18.55;;;11.85;;
62463;SDS011;48512;48.552;9.380;2022-07-29T14:35:55;16.52;;;10.65;;
62463;SDS011;48512;48.552;9.380;2022-07-29T14:38:20;15.65;;;8.80;;
62463;SDS011;48512;48.552;9.380;2022-07-29T14:40:45;11.90;;;9.40;;
62463;SDS011;48512;48.552;9.380;2022-07-29T14:43:11;15.23;;;11.23;;
62463;SDS011;48512;48.552;9.380;2022-07-29T14:45:38;13.85;;;11.02;;
62463;SDS011;48512;48.552;9.380;2022-07-29T14:48:04;13.15;;;9.27;;
62463;SDS011;48512;48.552;9.380;2022-07-29T14:50:30;9.48;;;8.50;;
62463;SDS011;48512;48.552;9.380;2022-07-29T14:52:55;10.75;;;8.73;;
62463;SDS011;48512;48.552;9.380;2022-07-29T14:55:21;10.18;;;8.55;;
62463;SDS011;48512;48.552;9.380;2022-07-29T14:57:47;10.13;;;8.27;;
62463;SDS011;48512;48.552;9.380;2022-07-29T15:00:12;12.80;;;8.88;;
62463;SDS011;48512;48.552;9.380;2022-07-29T15:02:38;9.38;;;8.48;;
62463;SDS011;48512;48.552;9.380;2022-07-29T15:05:04;11.77;;;8.18;;
62463;SDS011;48512;48.552;9.380;2022-07-29T15:07:30;12.68;;;7.82;;
62463;SDS011;48512;48.552;9.380;2022-07-29T15:09:55;10.25;;;7.47;;
62463;SDS011;48512;48.552;9.380;2022-07-29T15:12:20;9.90;;;8.60;;
62463;SDS011;48512;48.552;9.380;2022-07-29T15:14:46;9.50;;;8.50;;
62463;SDS011;48512;48.552;9.380;2022-07-29T15:17:11;11.18;;;8.18;;
62463;SDS011;48512;48.552;9.380;2022-07-29T15:19:37;8.98;;;8.10;;
62463;SDS011;48512;48.552;9.380;2022-07-29T15:22:02;10.20;;;8.30;;
62463;SDS011;48512;48.552;9.380;2022-07-29T15:24:29;12.85;;;8.40;;
62463;SDS011;48512;48.552;9.380;2022-07-29T15:26:55;9.43;;;8.35;;
62463;SDS011;48512;48.552;9.380;2022-07-29T15:29:20;11.68;;;8.95;;
62463;SDS011;48512;48.552;9.380;2022-07-29T15:31:46;9.65;;;8.63;;
62463;SDS011;48512;48.552;9.380;2022-07-29T15:34:12;9.50;;;7.63;;
62463;SDS011;48512;48.552;9.380;2022-07-29T15:36:37;11.52;;;8.48;;
62463;SDS011;48512;48.552;9.380;2022-07-29T15:39:03;9.43;;;8.27;;
62463;SDS011;48512;48.552;9.380;2022-07-29T15:41:28;11.10;;;8.65;;
62463;SDS011;48512;48.552;9.380;2022-07-29T15:43:54;10.10;;;8.50;;
62463;SDS011;48512;48.552;9.380;2022-07-29T15:46:19;10.27;;;8.82;;
62463;SDS011;48512;48.552;9.380;2022-07-29T15:49:04;13.27;;;9.50;;
62463;SDS011;48512;48.552;9.380;2022-07-29T15:51:30;10.82;;;8.57;;